Time;durP1;ratioP1;P1;durP2;ratioP2;P2;SDS_P1;SDS_P2;PMS_P1;PMS_P2;Temp;Humidity;BMP_temperature;BMP_pressure;BME280_temperature;BME280_humidity;BME280_pressure;Samples;Min_cycle;Max_cycle;Signal;HPM_P1;HPM_P2
2022/12/14 00:01:07;;;;;;;49.73;27.60;;;-2.50;99.90;;;;;;4983778;28;20056;-64
2022/12/14 00:03:34;;;;;;;53.80;28.57;;;-2.40;99.90;;;;;;5002008;28;20045;-62
2022/12/14 00:06:17;;;;;;;55.80;28.40;;;-2.50;99.90;;;;;;4977159;28;20080;-62
2022/12/14 00:08:45;;;;;;;42.35;23.17;;;-2.50;99.90;;;;;;4989366;28;20042;-62
2022/12/14 00:11:13;;;;;;;48.20;26.27;;;-2.60;99.90;;;;;;4983127;28;20040;-64
2022/12/14 00:13:39;;;;;;;48.77;26.17;;;-2.70;99.90;;;;;;4966445;28;20537;-63
2022/12/14 00:16:11;;;;;;;46.73;25.33;;;-2.80;99.90;;;;;;4984181;28;20057;-63
2022/12/14 00:18:38;;;;;;;46.80;24.73;;;-3.00;99.90;;;;;;4985410;28;20054;-64
2022/12/14 00:21:12;;;;;;;49.00;25.43;;;-3.00;99.90;;;;;;4987670;28;20030;-63
2022/12/14 00:23:39;;;;;;;53.70;28.83;;;-3.10;99.90;;;;;;4964905;28;20050;-63
2022/12/14 00:26:18;;;;;;;51.33;29.00;;;-3.10;99.90;;;;;;4974003;28;21308;-63
2022/12/14 00:28:46;;;;;;;48.83;28.97;;;-3.20;99.90;;;;;;4990421;28;20046;-63
2022/12/14 00:31:12;;;;;;;51.43;28.20;;;-3.10;99.90;;;;;;4985579;28;20054;-64
2022/12/14 00:33:38;;;;;;;49.13;26.67;;;-3.10;99.90;;;;;;5005078;28;20046;-62
2022/12/14 00:36:13;;;;;;;50.53;27.57;;;-3.10;99.90;;;;;;5010101;28;20078;-63
2022/12/14 00:38:40;;;;;;;47.67;26.80;;;-3.10;99.90;;;;;;4951631;28;20732;-63
2022/12/14 00:41:06;;;;;;;46.10;26.17;;;-3.20;99.90;;;;;;5004568;28;20041;-64
2022/12/14 00:43:32;;;;;;;47.90;28.10;;;-3.20;99.90;;;;;;4989214;28;20041;-63
2022/12/14 00:45:58;;;;;;;51.30;28.87;;;-3.30;99.90;;;;;;4984204;28;20042;-64
2022/12/14 00:48:25;;;;;;;47.47;27.17;;;-3.30;99.90;;;;;;4986763;28;20050;-62
2022/12/14 00:50:53;;;;;;;44.67;24.93;;;-3.30;99.90;;;;;;4988022;28;20030;-63
2022/12/14 00:53:19;;;;;;;49.20;26.37;;;-3.30;99.90;;;;;;4970106;28;20078;-62
2022/12/14 00:55:46;;;;;;;46.97;26.27;;;-3.30;99.90;;;;;;4982044;28;20277;-62
2022/12/14 00:58:13;;;;;;;49.73;26.67;;;-3.30;99.90;;;;;;4970165;28;20125;-63
2022/12/14 01:00:40;;;;;;;46.03;24.50;;;-3.30;99.90;;;;;;4981012;28;20416;-62
2022/12/14 01:03:06;;;;;;;44.57;24.77;;;-3.30;99.90;;;;;;4967618;28;20388;-63
2022/12/14 01:05:35;;;;;;;44.47;25.57;;;-3.30;99.90;;;;;;4995956;28;20398;-63
2022/12/14 01:08:01;;;;;;;45.90;27.40;;;-3.30;99.90;;;;;;4981285;28;20441;-63
2022/12/14 01:10:27;;;;;;;51.93;28.30;;;-3.30;99.90;;;;;;4962556;28;20109;-63
2022/12/14 01:12:53;;;;;;;47.93;25.63;;;-3.40;99.90;;;;;;4980072;28;20163;-62
2022/12/14 01:15:19;;;;;;;46.53;25.80;;;-3.40;99.90;;;;;;4984588;28;20396;-62
2022/12/14 01:17:45;;;;;;;42.90;23.63;;;-3.50;99.90;;;;;;4985172;28;20670;-63
2022/12/14 01:20:11;;;;;;;45.47;26.00;;;-3.50;99.90;;;;;;4973282;28;20034;-63
2022/12/14 01:22:37;;;;;;;47.33;26.17;;;-3.50;99.90;;;;;;4982679;28;20049;-62
2022/12/14 01:25:03;;;;;;;48.77;27.07;;;-3.60;99.90;;;;;;4991526;28;20034;-62
2022/12/14 01:27:29;;;;;;;40.03;23.37;;;-3.60;99.90;;;;;;4987430;28;20165;-60
2022/12/14 01:29:55;;;;;;;43.57;23.93;;;-3.60;99.90;;;;;;4971570;28;20141;-63
2022/12/14 01:32:21;;;;;;;46.37;24.77;;;-3.60;99.90;;;;;;4976552;28;20042;-62
2022/12/14 01:34:47;;;;;;;44.63;25.07;;;-3.60;99.90;;;;;;5003564;28;20042;-62
2022/12/14 01:37:13;;;;;;;43.80;23.47;;;-3.70;99.90;;;;;;5003685;28;20485;-63
2022/12/14 01:39:39;;;;;;;43.30;24.20;;;-3.70;99.90;;;;;;4986445;28;20101;-62
2022/12/14 01:42:11;;;;;;;42.57;23.03;;;-3.80;99.90;;;;;;5001938;28;20046;-62
2022/12/14 01:44:42;;;;;;;47.90;25.23;;;-3.80;99.90;;;;;;4988198;28;20048;-63
2022/12/14 01:47:18;;;;;;;47.30;24.00;;;-3.90;99.90;;;;;;4984418;28;20053;-62
2022/12/14 01:49:56;;;;;;;44.00;25.47;;;-3.80;99.90;;;;;;4984983;28;20053;-63
2022/12/14 01:52:26;;;;;;;43.50;24.07;;;-3.80;99.90;;;;;;4987460;28;20334;-63
2022/12/14 01:54:59;;;;;;;45.27;25.33;;;-3.80;99.90;;;;;;4984426;28;20038;-62
2022/12/14 01:57:52;;;;;;;47.43;25.50;;;-3.70;99.90;;;;;;4988970;28;20061;-63
2022/12/14 02:00:18;;;;;;;45.77;24.17;;;-3.70;99.90;;;;;;4968113;28;20042;-62
2022/12/14 02:02:55;;;;;;;48.33;27.33;;;-3.70;99.90;;;;;;4996738;28;20042;-63
2022/12/14 02:05:22;;;;;;;47.53;26.50;;;-3.80;99.90;;;;;;4987826;28;20034;-62
2022/12/14 02:07:49;;;;;;;42.90;23.93;;;-3.80;99.90;;;;;;5001552;28;20042;-62
2022/12/14 02:10:16;;;;;;;45.90;25.13;;;-3.80;99.90;;;;;;4976034;28;20406;-62
2022/12/14 02:12:48;;;;;;;43.63;24.17;;;-3.70;99.90;;;;;;4985231;28;20125;-63
2022/12/14 02:15:15;;;;;;;45.10;25.43;;;-3.70;99.90;;;;;;4986536;28;20686;-63
2022/12/14 02:17:44;;;;;;;45.67;26.10;;;-3.70;99.90;;;;;;4987392;28;20334;-63
2022/12/14 02:20:12;;;;;;;49.30;24.87;;;-3.70;99.90;;;;;;4988367;28;20350;-62
2022/12/14 02:23:19;;;;;;;44.10;23.57;;;-3.80;99.90;;;;;;4989369;28;20418;-63
2022/12/14 02:26:03;;;;;;;44.70;25.43;;;-3.80;99.90;;;;;;4985851;28;20550;-63
2022/12/14 02:29:02;;;;;;;44.20;25.67;;;-3.90;99.90;;;;;;4986945;28;20081;-62
2022/12/14 02:32:04;;;;;;;49.77;25.10;;;-3.90;99.90;;;;;;4985867;28;20497;-61
2022/12/14 02:34:55;;;;;;;47.00;25.90;;;-4.00;99.90;;;;;;4974620;28;20073;-63
2022/12/14 02:37:58;;;;;;;44.20;24.90;;;-4.00;99.90;;;;;;4981434;28;20497;-63
2022/12/14 02:40:27;;;;;;;43.80;24.07;;;-4.00;99.90;;;;;;4974280;28;20069;-62
2022/12/14 02:42:59;;;;;;;43.77;23.27;;;-4.00;99.90;;;;;;4990813;28;20512;-62
2022/12/14 02:46:07;;;;;;;42.90;24.17;;;-4.10;99.90;;;;;;4988174;28;20081;-62
2022/12/14 02:48:43;;;;;;;46.00;24.27;;;-4.10;99.90;;;;;;4951992;28;20678;-63
2022/12/14 02:51:24;;;;;;;46.07;24.13;;;-4.10;99.90;;;;;;4970760;28;20054;-63
2022/12/14 02:54:05;;;;;;;41.67;22.87;;;-4.10;99.90;;;;;;4990752;28;20045;-63
2022/12/14 02:56:38;;;;;;;47.33;25.07;;;-4.10;99.90;;;;;;5002284;28;20172;-62
2022/12/14 02:59:07;;;;;;;43.45;22.67;;;-4.20;99.90;;;;;;4983775;28;20441;-63
2022/12/14 03:01:35;;;;;;;43.23;24.13;;;-4.20;99.90;;;;;;5001052;28;20116;-62
2022/12/14 03:04:02;;;;;;;45.50;24.90;;;-4.10;99.90;;;;;;4984904;28;20169;-62
2022/12/14 03:06:28;;;;;;;41.80;24.17;;;-4.20;99.90;;;;;;4989696;28;20065;-62
2022/12/14 03:09:02;;;;;;;44.60;23.80;;;-4.20;99.90;;;;;;5001527;28;20125;-62
2022/12/14 03:11:47;;;;;;;43.55;23.55;;;-4.20;99.90;;;;;;4984887;28;20030;-63
2022/12/14 03:14:19;;;;;;;46.33;23.47;;;-4.20;99.90;;;;;;4973833;28;20042;-62
2022/12/14 03:16:49;;;;;;;41.97;24.93;;;-4.20;99.90;;;;;;4985933;28;20473;-62
2022/12/14 03:19:34;;;;;;;42.40;23.43;;;-4.30;99.90;;;;;;4987179;28;20053;-63
2022/12/14 03:22:08;;;;;;;46.40;24.37;;;-4.30;99.90;;;;;;4984032;28;20301;-62
2022/12/14 03:24:44;;;;;;;46.00;26.33;;;-4.30;99.90;;;;;;4986922;28;20516;-63
2022/12/14 03:27:22;;;;;;;45.97;26.77;;;-4.30;99.90;;;;;;4994937;28;20501;-63
2022/12/14 03:29:58;;;;;;;47.33;25.33;;;-4.30;99.90;;;;;;4986091;28;20048;-62
2022/12/14 03:32:26;;;;;;;45.90;26.33;;;-4.30;99.90;;;;;;4990723;28;20076;-62
2022/12/14 03:35:20;;;;;;;46.10;24.83;;;-4.40;99.90;;;;;;4982348;28;20045;-61
2022/12/14 03:37:58;;;;;;;45.90;24.63;;;-4.40;99.90;;;;;;5005672;28;20132;-63
2022/12/14 03:40:53;;;;;;;42.90;23.70;;;-4.40;99.90;;;;;;5003522;28;20045;-63
2022/12/14 03:43:32;;;;;;;51.73;26.73;;;-4.50;99.90;;;;;;5006215;28;20041;-62
2022/12/14 03:46:16;;;;;;;67.23;27.23;;;-4.50;99.90;;;;;;4992743;28;20075;-63
2022/12/14 03:48:48;;;;;;;49.17;25.43;;;-4.50;99.90;;;;;;5013728;28;20038;-63
2022/12/14 03:51:23;;;;;;;51.70;26.43;;;-4.50;99.90;;;;;;4999973;28;20049;-63
2022/12/14 03:54:08;;;;;;;50.00;25.30;;;-4.50;99.90;;;;;;5019449;28;20042;-63
2022/12/14 03:56:56;;;;;;;50.90;25.97;;;-4.50;99.90;;;;;;4990937;28;20084;-63
2022/12/14 03:59:22;;;;;;;50.50;25.27;;;-4.50;99.90;;;;;;5001914;28;20607;-62
2022/12/14 04:01:53;;;;;;;45.00;24.23;;;-4.50;99.90;;;;;;4999628;28;20778;-63
2022/12/14 04:04:46;;;;;;;45.40;24.13;;;-4.50;99.90;;;;;;5001834;28;20144;-63
2022/12/14 04:07:22;;;;;;;50.13;25.10;;;-4.50;99.90;;;;;;4987938;28;20378;-62
2022/12/14 04:09:50;;;;;;;50.23;27.87;;;-4.50;99.90;;;;;;4997092;28;20096;-64
2022/12/14 04:21:50;;;;;;;49.43;24.53;;;-4.60;99.90;;;;;;4934825;28;20131;-63
2022/12/14 04:27:45;;;;;;;45.77;25.07;;;-4.70;99.90;;;;;;4984832;28;20046;-63
2022/12/14 04:30:13;;;;;;;42.40;23.45;;;-4.70;99.90;;;;;;4993989;28;20125;-62
2022/12/14 04:32:50;;;;;;;47.37;25.87;;;-4.70;99.90;;;;;;4999823;28;20318;-63
2022/12/14 04:35:27;;;;;;;42.87;24.40;;;-4.70;99.90;;;;;;4998138;28;20034;-62
2022/12/14 04:38:22;;;;;;;46.10;23.83;;;-4.70;99.90;;;;;;5004126;28;20157;-62
2022/12/14 04:40:54;;;;;;;45.57;24.27;;;-4.70;99.90;;;;;;5000218;28;20062;-62
2022/12/14 04:43:24;;;;;;;40.93;22.10;;;-4.80;99.90;;;;;;4995613;28;20060;-62
2022/12/14 04:45:58;;;;;;;48.43;25.87;;;-5.00;99.90;;;;;;5003290;28;20057;-63
2022/12/14 04:48:27;;;;;;;44.00;23.35;;;-4.90;99.90;;;;;;4978781;28;20168;-63
2022/12/14 04:51:02;;;;;;;45.10;24.40;;;-4.90;99.90;;;;;;5019680;28;20496;-62
2022/12/14 04:53:32;;;;;;;46.57;23.47;;;-4.90;99.90;;;;;;5016179;28;20534;-62
2022/12/14 04:56:07;;;;;;;47.70;25.07;;;-4.90;99.90;;;;;;5003483;28;20050;-63
2022/12/14 04:58:34;;;;;;;48.93;25.43;;;-4.90;99.90;;;;;;4981432;28;20117;-62
2022/12/14 05:01:12;;;;;;;43.63;23.50;;;-5.20;99.90;;;;;;4996619;28;20082;-61
2022/12/14 05:03:50;;;;;;;44.83;26.67;;;-4.90;99.90;;;;;;5006571;28;20046;-63
2022/12/14 05:06:26;;;;;;;42.60;22.97;;;-4.80;99.90;;;;;;5014159;28;20073;-62
2022/12/14 05:08:57;;;;;;;50.67;26.00;;;-4.80;99.90;;;;;;5011843;28;20041;-62
2022/12/14 05:11:49;;;;;;;46.67;24.67;;;-4.80;99.90;;;;;;5007911;28;20046;-62
2022/12/14 05:15:08;;;;;;;48.73;24.43;;;-4.80;99.90;;;;;;5002837;28;20046;-62
2022/12/14 05:17:38;;;;;;;51.77;25.47;;;-4.90;99.90;;;;;;4981042;28;20146;-63
2022/12/14 05:20:05;;;;;;;45.67;25.63;;;-4.90;99.90;;;;;;5011319;28;20099;-62
2022/12/14 05:22:31;;;;;;;44.50;24.87;;;-5.00;99.90;;;;;;5007212;28;20037;-62
2022/12/14 05:24:57;;;;;;;45.03;24.17;;;-5.00;99.90;;;;;;5007566;28;20206;-63
2022/12/14 05:27:22;;;;;;;51.57;27.33;;;-5.00;99.90;;;;;;4985549;28;20139;-61
2022/12/14 05:29:48;;;;;;;51.97;27.97;;;-4.90;99.90;;;;;;5004489;28;20048;-62
2022/12/14 05:32:14;;;;;;;58.67;31.90;;;-4.90;99.90;;;;;;4982473;28;20124;-62
2022/12/14 05:34:40;;;;;;;57.77;31.47;;;-5.00;99.90;;;;;;4998253;28;20053;-62
2022/12/14 05:37:06;;;;;;;52.97;28.13;;;-5.00;99.90;;;;;;4983902;28;20116;-63
2022/12/14 05:39:31;;;;;;;48.67;25.83;;;-4.90;99.90;;;;;;4994936;28;20129;-63
2022/12/14 05:41:57;;;;;;;54.13;27.07;;;-4.90;99.90;;;;;;5011654;28;20046;-62
2022/12/14 05:44:23;;;;;;;47.10;24.23;;;-4.80;99.90;;;;;;5000589;28;20049;-61
2022/12/14 05:46:48;;;;;;;51.37;25.90;;;-4.80;99.90;;;;;;5004141;28;20080;-61
2022/12/14 05:49:15;;;;;;;48.70;24.20;;;-4.80;99.90;;;;;;4988939;28;20064;-63
2022/12/14 05:51:40;;;;;;;45.40;24.43;;;-4.80;99.90;;;;;;5004899;28;20045;-63
2022/12/14 05:54:06;;;;;;;47.50;26.30;;;-4.80;99.90;;;;;;5002190;28;20101;-62
2022/12/14 05:56:32;;;;;;;50.67;27.07;;;-4.80;99.90;;;;;;5002649;28;20049;-62
2022/12/14 05:58:57;;;;;;;55.50;26.83;;;-4.80;99.90;;;;;;4984423;28;20046;-62
2022/12/14 06:01:23;;;;;;;55.00;28.60;;;-4.80;99.90;;;;;;5001856;28;20050;-62
2022/12/14 06:03:52;;;;;;;48.77;25.70;;;-4.80;99.90;;;;;;5004722;28;20053;-62
2022/12/14 06:06:18;;;;;;;44.70;24.77;;;-4.90;99.90;;;;;;4997860;28;20030;-63
2022/12/14 06:08:45;;;;;;;45.63;24.73;;;-4.90;99.90;;;;;;5021831;28;20049;-63
2022/12/14 06:11:22;;;;;;;43.73;23.43;;;-4.90;99.90;;;;;;5005174;28;20489;-62
2022/12/14 06:13:48;;;;;;;45.03;24.70;;;-4.90;99.90;;;;;;5007235;28;20038;-61
2022/12/14 06:16:20;;;;;;;42.07;22.37;;;-4.90;99.90;;;;;;5002299;28;20046;-61
2022/12/14 06:18:54;;;;;;;47.07;25.80;;;-4.90;99.90;;;;;;4999480;28;20046;-62
2022/12/14 06:21:24;;;;;;;46.17;25.37;;;-5.00;99.90;;;;;;4993473;28;20049;-62
2022/12/14 06:23:50;;;;;;;49.77;27.07;;;-5.00;99.90;;;;;;4997447;28;20044;-63
2022/12/14 06:26:17;;;;;;;49.83;27.23;;;-5.00;99.90;;;;;;5000939;28;20496;-62
2022/12/14 06:28:43;;;;;;;53.80;27.97;;;-5.00;99.90;;;;;;5001105;28;20598;-63
2022/12/14 06:31:18;;;;;;;46.17;23.90;;;-5.00;99.90;;;;;;4985946;28;20034;-63
2022/12/14 06:33:44;;;;;;;50.27;24.80;;;-5.00;99.90;;;;;;4980008;28;20420;-62
2022/12/14 06:36:37;;;;;;;45.70;24.27;;;-5.00;99.90;;;;;;5002403;28;20042;-62
2022/12/14 06:39:10;;;;;;;42.17;23.60;;;-5.10;99.90;;;;;;4995556;28;20046;-62
2022/12/14 06:41:36;;;;;;;46.87;25.13;;;-5.10;99.90;;;;;;4998107;28;20084;-63
2022/12/14 06:44:07;;;;;;;46.33;23.17;;;-5.20;99.90;;;;;;4999619;28;20069;-61
2022/12/14 06:46:33;;;;;;;47.30;24.90;;;-5.20;99.90;;;;;;4984918;28;20048;-62
2022/12/14 06:48:59;;;;;;;39.57;22.43;;;-5.20;99.90;;;;;;5006356;28;20044;-63
2022/12/14 06:51:25;;;;;;;47.80;23.97;;;-5.20;99.90;;;;;;5010078;28;20045;-62
2022/12/14 06:53:52;;;;;;;40.40;20.80;;;-5.30;99.90;;;;;;4993151;28;20046;-62
2022/12/14 06:56:20;;;;;;;42.03;21.57;;;-5.30;99.90;;;;;;5004858;28;20049;-62
2022/12/14 06:58:49;;;;;;;43.43;23.80;;;-5.30;99.90;;;;;;5002392;28;20476;-61
2022/12/14 07:01:17;;;;;;;44.03;23.27;;;-5.30;99.90;;;;;;5003699;22;20038;-58
2022/12/14 07:03:47;;;;;;;44.17;23.20;;;-5.40;99.90;;;;;;5099082;27;20023;-59
2022/12/14 07:06:13;;;;;;;42.33;21.57;;;-5.40;99.90;;;;;;5075457;28;20444;-56
2022/12/14 07:08:39;;;;;;;48.63;24.27;;;-5.40;99.90;;;;;;5079489;28;20040;-56
2022/12/14 07:11:08;;;;;;;49.60;23.37;;;-5.40;99.90;;;;;;5063639;28;20103;-57
2022/12/14 07:13:35;;;;;;;44.87;23.30;;;-5.40;99.90;;;;;;5077855;28;20048;-59
2022/12/14 07:16:01;;;;;;;43.97;24.80;;;-5.40;99.90;;;;;;5078417;28;20060;-58
2022/12/14 07:18:27;;;;;;;48.53;26.60;;;-5.30;99.90;;;;;;5068936;28;20101;-59
2022/12/14 07:21:00;;;;;;;48.77;25.23;;;-5.30;99.90;;;;;;5075734;28;20494;-59
2022/12/14 07:23:28;;;;;;;43.00;23.77;;;-5.20;99.90;;;;;;5079210;28;20509;-58
2022/12/14 07:26:00;;;;;;;44.07;23.13;;;-5.20;99.90;;;;;;5075435;28;20567;-60
2022/12/14 07:28:27;;;;;;;38.60;21.57;;;-5.10;99.90;;;;;;5082566;28;20445;-58
2022/12/14 07:31:00;;;;;;;44.70;23.10;;;-5.10;99.90;;;;;;5079655;28;20286;-59
2022/12/14 07:33:27;;;;;;;38.17;20.48;;;-5.10;99.90;;;;;;5065581;28;20040;-58
2022/12/14 07:36:19;;;;;;;48.03;22.53;;;-5.10;99.90;;;;;;5089156;28;20036;-59
2022/12/14 07:38:47;;;;;;;45.10;24.63;;;-5.10;99.90;;;;;;5087458;28;20040;-58
2022/12/14 07:41:18;;;;;;;45.60;23.60;;;-5.10;99.90;;;;;;5080253;28;20044;-57
2022/12/14 07:43:44;;;;;;;43.83;23.43;;;-5.20;99.90;;;;;;5080306;28;20040;-60
2022/12/14 07:46:13;;;;;;;42.30;23.43;;;-5.30;99.90;;;;;;5070025;28;20484;-59
2022/12/14 07:48:42;;;;;;;37.20;21.43;;;-5.30;99.90;;;;;;5075245;28;20557;-59
2022/12/14 07:51:10;;;;;;;44.33;23.47;;;-5.40;99.90;;;;;;5056431;28;21458;-59
2022/12/14 07:53:37;;;;;;;42.93;22.80;;;-5.40;99.90;;;;;;5085377;28;20376;-59
2022/12/14 07:56:10;;;;;;;43.40;22.77;;;-5.40;99.90;;;;;;5077485;28;20500;-57
2022/12/14 07:58:36;;;;;;;40.30;22.17;;;-5.40;99.90;;;;;;5071082;28;20534;-58
2022/12/14 08:01:08;;;;;;;44.47;22.83;;;-5.40;99.90;;;;;;5059509;28;20652;-59
2022/12/14 08:03:34;;;;;;;43.20;22.23;;;-5.40;99.90;;;;;;5054654;28;20048;-61
2022/12/14 08:06:03;;;;;;;45.20;22.40;;;-5.40;99.90;;;;;;5070536;28;20602;-59
2022/12/14 08:08:29;;;;;;;43.17;22.60;;;-5.40;99.90;;;;;;5051153;28;20122;-59
2022/12/14 08:10:55;;;;;;;38.93;22.13;;;-5.40;99.90;;;;;;5065041;28;20115;-58
2022/12/14 08:13:20;;;;;;;43.97;24.27;;;-5.40;99.90;;;;;;5058263;28;20042;-58
2022/12/14 08:15:46;;;;;;;47.03;24.03;;;-5.40;99.90;;;;;;5073061;28;20072;-59
2022/12/14 08:18:12;;;;;;;49.83;25.77;;;-5.40;99.90;;;;;;5076677;28;20052;-58
2022/12/14 08:20:37;;;;;;;52.83;26.00;;;-5.40;99.90;;;;;;5069276;28;20044;-60
2022/12/14 08:23:03;;;;;;;43.87;23.10;;;-5.40;99.90;;;;;;5061231;28;20151;-60
2022/12/14 08:25:29;;;;;;;50.73;27.70;;;-5.40;99.90;;;;;;5068925;28;20129;-60
2022/12/14 08:27:54;;;;;;;48.33;26.87;;;-5.40;99.90;;;;;;5062433;28;20792;-60
2022/12/14 08:30:20;;;;;;;46.00;23.77;;;-5.30;99.90;;;;;;5056691;28;20043;-59
2022/12/14 08:32:46;;;;;;;46.07;22.53;;;-5.30;99.90;;;;;;5073491;28;20406;-60
2022/12/14 08:35:11;;;;;;;44.93;22.80;;;-5.30;99.90;;;;;;5082779;28;20646;-59
2022/12/14 08:37:37;;;;;;;46.33;23.30;;;-5.20;99.90;;;;;;5092568;28;20063;-58
2022/12/14 08:40:03;;;;;;;48.37;23.23;;;-5.20;99.90;;;;;;5065039;28;20071;-60
2022/12/14 08:42:29;;;;;;;47.83;22.80;;;-5.20;99.90;;;;;;5062233;28;20032;-60
2022/12/14 08:44:54;;;;;;;50.60;24.77;;;-5.20;99.90;;;;;;5071740;28;20390;-59
2022/12/14 08:47:20;;;;;;;43.37;23.40;;;-5.10;99.90;;;;;;5065781;28;20040;-60
2022/12/14 08:49:46;;;;;;;44.33;24.30;;;-5.00;99.90;;;;;;5066784;28;20041;-63
2022/12/14 08:52:11;;;;;;;48.57;23.33;;;-5.00;99.90;;;;;;5024974;28;20048;-59
2022/12/14 08:54:37;;;;;;;48.30;23.43;;;-5.00;99.90;;;;;;5061253;28;20098;-59
2022/12/14 08:57:03;;;;;;;45.50;23.00;;;-5.00;99.90;;;;;;5061657;28;20286;-61
2022/12/14 08:59:29;;;;;;;45.47;24.40;;;-4.90;99.90;;;;;;5044720;28;20064;-60
2022/12/14 09:01:55;;;;;;;48.27;24.63;;;-4.80;99.90;;;;;;5064033;28;20520;-59
2022/12/14 09:04:20;;;;;;;46.33;24.23;;;-4.70;99.90;;;;;;5061245;28;20040;-63
2022/12/14 09:06:46;;;;;;;44.70;23.33;;;-4.60;99.90;;;;;;5059192;28;20594;-59
2022/12/14 09:09:12;;;;;;;44.00;22.73;;;-4.50;99.90;;;;;;5067006;28;20036;-61
2022/12/14 09:11:37;;;;;;;45.80;25.97;;;-4.40;99.90;;;;;;5062785;28;20052;-61
2022/12/14 09:14:03;;;;;;;50.30;24.13;;;-4.30;99.90;;;;;;5031716;28;20043;-60
2022/12/14 09:16:29;;;;;;;46.07;24.67;;;-4.20;99.90;;;;;;5059640;28;20047;-59
2022/12/14 09:18:55;;;;;;;50.53;26.67;;;-4.10;99.90;;;;;;5062639;28;20028;-61
2022/12/14 09:21:21;;;;;;;40.67;21.73;;;-4.00;99.90;;;;;;5066653;28;20040;-62
2022/12/14 09:23:47;;;;;;;43.43;25.23;;;-3.90;99.90;;;;;;5061674;28;20446;-61
2022/12/14 09:26:15;;;;;;;47.60;24.67;;;-3.80;99.90;;;;;;5063035;28;20051;-59
2022/12/14 09:28:43;;;;;;;48.33;23.20;;;-3.80;99.90;;;;;;5042965;28;20043;-59
2022/12/14 09:31:12;;;;;;;44.00;24.43;;;-3.70;99.90;;;;;;5062047;28;20079;-60
2022/12/14 09:33:38;;;;;;;46.03;23.50;;;-3.60;99.90;;;;;;5042606;28;20044;-61
2022/12/14 09:36:07;;;;;;;47.00;23.57;;;-3.50;99.90;;;;;;5059412;28;20063;-62
2022/12/14 09:38:35;;;;;;;41.17;23.20;;;-3.40;99.90;;;;;;5058458;28;20040;-60
2022/12/14 09:41:05;;;;;;;44.60;23.50;;;-3.30;99.90;;;;;;5047037;28;20502;-61
2022/12/14 09:43:44;;;;;;;50.33;24.40;;;-3.20;99.90;;;;;;5061053;28;20036;-60
2022/12/14 09:46:39;;;;;;;44.60;21.83;;;-3.10;99.90;;;;;;5060596;28;20112;-62
2022/12/14 09:49:17;;;;;;;47.30;22.48;;;-3.00;99.90;;;;;;5039743;28;20093;-62
2022/12/14 09:51:42;;;;;;;44.53;23.50;;;-2.90;99.90;;;;;;5068921;28;20040;-62
2022/12/14 09:54:13;;;;;;;40.60;22.80;;;-2.80;99.90;;;;;;5042816;28;20044;-62
2022/12/14 09:56:41;;;;;;;41.53;22.30;;;-2.70;99.90;;;;;;5034722;28;20048;-62
2022/12/14 09:59:15;;;;;;;43.57;23.03;;;-2.60;99.90;;;;;;5048881;28;20048;-60
2022/12/14 10:01:59;;;;;;;;;;;-2.60;99.90;;;;;;5047321;28;20040;-59
2022/12/14 10:05:15;;;;;;;43.05;24.30;;;-2.50;99.90;;;;;;5070242;28;19926;-62
2022/12/14 10:08:00;;;;;;;42.30;22.07;;;-2.40;99.90;;;;;;5089677;28;20371;-61
2022/12/14 10:10:46;;;;;;;43.13;21.00;;;-2.40;99.90;;;;;;5087287;28;20403;-62
2022/12/14 10:13:45;;;;;;;37.70;21.67;;;-2.30;99.90;;;;;;5088957;28;20110;-59
2022/12/14 10:16:30;;;;;;;40.67;20.00;;;-2.20;99.90;;;;;;5083167;28;20591;-61
2022/12/14 10:19:26;;;;;;;34.40;19.77;;;-2.10;99.90;;;;;;5092594;28;20039;-61
2022/12/14 10:22:08;;;;;;;38.17;19.07;;;-2.00;99.90;;;;;;5078058;28;20059;-61
2022/12/14 10:24:47;;;;;;;32.53;17.97;;;-1.90;99.90;;;;;;5071752;28;20954;-61
2022/12/14 10:27:25;;;;;;;30.47;18.10;;;-1.80;99.90;;;;;;5052227;28;20076;-59
2022/12/14 10:29:53;;;;;;;35.60;19.00;;;-1.70;99.90;;;;;;5072009;28;20062;-62
2022/12/14 10:32:20;;;;;;;34.23;17.57;;;-1.70;99.90;;;;;;5062872;28;20036;-62
2022/12/14 10:34:46;;;;;;;29.10;16.83;;;-1.50;99.90;;;;;;5066946;28;20101;-61
2022/12/14 10:37:23;;;;;;;32.27;16.67;;;-1.40;99.90;;;;;;5053009;28;20040;-58
2022/12/14 10:40:02;;;;;;;30.93;17.00;;;-1.40;99.90;;;;;;5050507;28;20075;-59
2022/12/14 10:42:51;;;;;;;30.77;18.17;;;-1.40;99.90;;;;;;5067696;28;20044;-61
2022/12/14 10:45:41;;;;;;;30.37;16.33;;;-1.20;99.90;;;;;;5047303;28;20040;-59
2022/12/14 10:48:31;;;;;;;30.53;15.60;;;-1.10;99.90;;;;;;5044063;28;20086;-62
2022/12/14 10:51:14;;;;;;;29.73;15.90;;;-1.00;99.90;;;;;;5055520;28;20136;-59
2022/12/14 10:54:07;;;;;;;27.93;16.03;;;-0.90;99.90;;;;;;5068583;28;20051;-61
2022/12/14 10:56:35;;;;;;;29.50;16.70;;;-0.90;99.90;;;;;;5035856;28;20075;-61
2022/12/14 10:59:25;;;;;;;28.73;14.73;;;-0.80;99.90;;;;;;5071990;28;20043;-61
2022/12/14 11:02:01;;;;;;;26.77;14.73;;;-0.70;99.90;;;;;;5050092;28;20043;-62
2022/12/14 11:04:34;;;;;;;28.57;15.63;;;-0.60;99.90;;;;;;5069408;28;20036;-60
2022/12/14 11:07:11;;;;;;;27.67;15.03;;;-0.50;99.90;;;;;;5053959;28;20532;-62
2022/12/14 11:09:38;;;;;;;27.00;15.07;;;-0.40;99.90;;;;;;5070346;28;20032;-63
2022/12/14 11:12:17;;;;;;;29.90;14.97;;;-0.40;99.90;;;;;;5061327;28;20062;-60
2022/12/14 11:14:59;;;;;;;25.73;14.90;;;-0.30;99.90;;;;;;5053220;28;20503;-60
2022/12/14 11:17:36;;;;;;;30.83;15.57;;;-0.30;99.90;;;;;;5057872;28;20050;-61
2022/12/14 11:20:07;;;;;;;25.67;14.43;;;-0.30;99.90;;;;;;5075092;28;20040;-60
2022/12/14 11:23:03;;;;;;;25.03;13.90;;;-0.20;99.90;;;;;;5055778;28;20071;-60
2022/12/14 11:25:38;;;;;;;25.73;13.57;;;-0.20;99.90;;;;;;5071430;28;20048;-60
2022/12/14 11:28:35;;;;;;;29.17;15.30;;;-0.10;99.90;;;;;;5036384;28;20097;-60
2022/12/14 11:31:03;;;;;;;23.73;12.93;;;-0.10;99.90;;;;;;5046075;28;20051;-59
2022/12/14 11:33:53;;;;;;;23.93;12.77;;;0.00;99.90;;;;;;5023891;28;20036;-60
2022/12/14 11:36:22;;;;;;;23.20;12.73;;;0.00;99.90;;;;;;5070992;28;20301;-60
2022/12/14 11:38:59;;;;;;;24.57;13.43;;;0.20;99.90;;;;;;5066999;28;20089;-61
2022/12/14 11:41:31;;;;;;;29.10;15.23;;;0.20;99.90;;;;;;5072396;28;20100;-60
2022/12/14 11:44:14;;;;;;;23.47;12.50;;;0.30;99.90;;;;;;5051376;28;20090;-59
2022/12/14 11:46:51;;;;;;;26.75;14.00;;;0.40;99.90;;;;;;5051262;28;20081;-60
2022/12/14 11:49:32;;;;;;;26.60;14.60;;;0.50;99.90;;;;;;5078088;28;20071;-60
2022/12/14 11:52:04;;;;;;;24.63;14.47;;;0.50;99.90;;;;;;5065236;28;20047;-60
2022/12/14 11:54:31;;;;;;;27.67;15.00;;;0.60;99.90;;;;;;5086824;28;20083;-60
2022/12/14 11:57:11;;;;;;;26.17;15.47;;;0.60;99.90;;;;;;5085298;28;20118;-60
2022/12/14 11:59:51;;;;;;;28.65;15.25;;;0.70;99.90;;;;;;5078350;28;20054;-59
2022/12/14 12:02:36;;;;;;;26.83;15.53;;;0.70;99.90;;;;;;5063494;28;20048;-58
2022/12/14 12:05:08;;;;;;;29.23;14.93;;;0.70;99.90;;;;;;5079230;28;20115;-58
2022/12/14 12:07:38;;;;;;;27.70;15.73;;;0.70;99.90;;;;;;5061693;28;20090;-58
2022/12/14 12:10:23;;;;;;;26.92;14.88;;;0.60;99.90;;;;;;5063722;28;20044;-60
2022/12/14 12:12:59;;;;;;;23.75;13.73;;;0.60;99.90;;;;;;5079261;28;20479;-60
2022/12/14 12:15:40;;;;;;;22.85;13.45;;;0.60;99.90;;;;;;5081646;28;20036;-57
2022/12/14 12:18:44;;;;;;;23.58;12.30;;;0.60;99.90;;;;;;5079779;28;20032;-58
2022/12/14 12:21:21;;;;;;;24.27;12.98;;;0.60;99.90;;;;;;5068320;28;20115;-59
2022/12/14 12:24:12;;;;;;;25.47;13.10;;;0.70;99.90;;;;;;5058471;28;20044;-59
2022/12/14 12:26:58;;;;;;;24.38;14.40;;;0.80;99.90;;;;;;5056799;28;20106;-60
2022/12/14 12:29:36;;;;;;;19.70;12.60;;;0.90;99.90;;;;;;5079833;28;20108;-60
2022/12/14 12:32:17;;;;;;;24.52;14.15;;;0.70;99.90;;;;;;5054824;28;20036;-60
2022/12/14 12:34:52;;;;;;;26.23;14.90;;;0.70;99.90;;;;;;5076227;28;20098;-60
2022/12/14 12:37:28;;;;;;;27.08;15.23;;;0.70;99.90;;;;;;5080761;28;20506;-61
2022/12/14 12:40:02;;;;;;;36.95;19.75;;;0.60;99.90;;;;;;5060765;28;20120;-58
2022/12/14 12:42:48;;;;;;;31.88;17.23;;;0.60;99.90;;;;;;5070398;28;20088;-60
2022/12/14 12:45:47;;;;;;;33.42;17.08;;;0.50;99.90;;;;;;5086683;28;20075;-59
2022/12/14 12:48:26;;;;;;;29.52;16.20;;;0.40;99.90;;;;;;5087102;28;20122;-60
2022/12/14 12:51:19;;;;;;;25.67;14.27;;;0.40;99.90;;;;;;5073281;28;20067;-60
2022/12/14 12:53:51;;;;;;;23.85;13.25;;;0.50;99.90;;;;;;5062567;28;20056;-59
2022/12/14 12:56:25;;;;;;;29.38;16.70;;;0.50;99.90;;;;;;5064737;28;20554;-58
2022/12/14 12:58:52;;;;;;;20.58;12.55;;;0.50;99.90;;;;;;5043860;28;20044;-61
2022/12/14 13:01:31;;;;;;;21.60;12.38;;;0.40;99.90;;;;;;5073566;28;20101;-58
2022/12/14 13:04:01;;;;;;;27.10;15.93;;;0.50;99.90;;;;;;5098329;22;20081;-63
2022/12/14 13:06:30;;;;;;;22.88;13.10;;;0.50;99.90;;;;;;5063958;28;20094;-64
2022/12/14 13:09:08;;;;;;;19.75;11.55;;;0.40;99.90;;;;;;5055176;28;20040;-64
2022/12/14 13:11:38;;;;;;;19.95;11.30;;;0.40;99.90;;;;;;5069629;28;20040;-64